Wetterdaten: Woche 11.11.02 - 17.11.02 (KW46)
Datum Zeit Temperatur Luftfeuchte Luftdruck Regenmenge Wind Richtung Taupunkt Windchill
11.11.2002 00:00 6.6 C 100 % 1005.7 hPa 0.0 l/m 0.1 km/h (0 Bft) N 6.6 C 6.6 C
11.11.2002 01:00 6.9 C 100 % 1005.2 hPa 0.6 l/m 0.0 km/h (0 Bft) N 6.9 C 6.9 C
11.11.2002 02:00 7.3 C 100 % 1004.8 hPa 0.0 l/m 0.0 km/h (0 Bft) N 7.3 C 7.3 C
11.11.2002 03:00 10.4 C 99 % 1004.6 hPa 0.3 l/m 10.2 km/h (2 Bft) NW 10.3 C 10.3 C
11.11.2002 04:00 10.6 C 99 % 1004.5 hPa 0.0 l/m 2.0 km/h (1 Bft) S 10.3 C 10.6 C
11.11.2002 05:00 10.4 C 98 % 1004.5 hPa 0.3 l/m 0.2 km/h (0 Bft) N 10.0 C 10.4 C
11.11.2002 06:00 10.4 C 97 % 1004.5 hPa 0.9 l/m 1.8 km/h (1 Bft) NW 10.0 C 10.4 C
11.11.2002 07:00 10.2 C 95 % 1004.5 hPa 1.2 l/m 0.1 km/h (0 Bft) O-SO 9.5 C 10.2 C
11.11.2002 08:00 10.4 C 97 % 1004.5 hPa 2.4 l/m 0.0 km/h (0 Bft) N 10.0 C 10.4 C
11.11.2002 09:00 10.7 C 98 % 1004.5 hPa 2.1 l/m 0.0 km/h (0 Bft) N 10.4 C 10.7 C
11.11.2002 10:00 11.4 C 94 % 1004.5 hPa 0.9 l/m 5.5 km/h (1 Bft) W-NW 10.4 C 11.4 C
11.11.2002 11:00 12.2 C 85 % 1004.5 hPa 0.3 l/m 7.4 km/h (2 Bft) W-NW 9.7 C 12.2 C
11.11.2002 12:00 10.8 C 85 % 1005.8 hPa 2.4 l/m 13.4 km/h (3 Bft) NW 8.4 C 10.1 C
11.11.2002 13:00 9.3 C 86 % 1007.9 hPa 0.6 l/m 11.0 km/h (2 Bft) NW 7.1 C 7.8 C
11.11.2002 14:00 9.4 C 85 % 1009.2 hPa 0.0 l/m 10.9 km/h (2 Bft) W-NW 7.0 C 8.1 C
11.11.2002 15:00 10.1 C 85 % 1011.2 hPa 0.0 l/m 8.8 km/h (2 Bft) W-NW 7.6 C 9.9 C
11.11.2002 16:00 8.8 C 91 % 1012.4 hPa 0.0 l/m 5.2 km/h (1 Bft) W 7.4 C 8.1 C
11.11.2002 17:00 7.5 C 93 % 1013.6 hPa 0.0 l/m 1.8 km/h (1 Bft) SO 6.4 C 7.2 C
11.11.2002 18:00 6.3 C 93 % 1014.2 hPa 0.0 l/m 0.0 km/h (0 Bft) N 5.2 C 6.3 C
11.11.2002 19:00 5.3 C 95 % 1014.9 hPa 0.0 l/m 2.4 km/h (1 Bft) O-SO 4.5 C 4.8 C
11.11.2002 20:00 4.9 C 95 % 1015.0 hPa 0.0 l/m 8.3 km/h (2 Bft) O-SO 4.1 C 3.0 C
11.11.2002 21:00 4.4 C 96 % 1015.9 hPa 0.0 l/m 6.4 km/h (2 Bft) O-SO 3.8 C 3.0 C
11.11.2002 22:00 4.6 C 98 % 1015.9 hPa 0.0 l/m 8.2 km/h (2 Bft) O-SO 4.3 C 2.7 C
11.11.2002 23:00 4.4 C 98 % 1015.9 hPa 0.0 l/m 5.7 km/h (1 Bft) O-SO 4.1 C 3.1 C
12.11.2002 00:00 3.8 C 97 % 1015.9 hPa 0.0 l/m 3.6 km/h (1 Bft) O-SO 3.5 C 2.9 C
12.11.2002 01:00 3.0 C 99 % 1016.7 hPa 0.0 l/m 0.2 km/h (0 Bft) O-SO 2.8 C 3.0 C
12.11.2002 02:00 2.3 C 100 % 1016.6 hPa 0.0 l/m 0.0 km/h (0 Bft) N 2.2 C 2.3 C
12.11.2002 03:00 2.4 C 100 % 1015.9 hPa 0.0 l/m 0.0 km/h (0 Bft) N 2.4 C 2.4 C
12.11.2002 04:00 2.6 C 100 % 1015.9 hPa 0.0 l/m 0.0 km/h (0 Bft) N 2.6 C 2.6 C
12.11.2002 05:00 2.9 C 100 % 1015.9 hPa 0.0 l/m 0.0 km/h (0 Bft) N 2.9 C 2.9 C
12.11.2002 06:00 2.8 C 100 % 1015.5 hPa 0.0 l/m 1.3 km/h (1 Bft) O-SO 2.8 C 2.6 C
12.11.2002 07:00 3.0 C 100 % 1014.9 hPa 0.0 l/m 0.0 km/h (0 Bft) N 3.0 C 3.0 C
12.11.2002 08:00 3.3 C 100 % 1014.9 hPa 0.0 l/m 0.3 km/h (0 Bft) O-SO 3.3 C 3.3 C
12.11.2002 09:00 4.0 C 100 % 1014.9 hPa 0.0 l/m 1.1 km/h (1 Bft) O-SO 4.0 C 3.8 C
12.11.2002 10:00 4.1 C 100 % 1014.8 hPa 0.0 l/m 0.1 km/h (0 Bft) N 4.1 C 4.1 C
12.11.2002 11:00 4.6 C 100 % 1013.9 hPa 0.0 l/m 0.4 km/h (0 Bft) O-SO 4.6 C 4.6 C
12.11.2002 12:00 5.0 C 100 % 1013.5 hPa 0.0 l/m 0.5 km/h (0 Bft) SO 4.9 C 5.0 C
12.11.2002 13:00 5.6 C 93 % 1012.8 hPa 0.0 l/m 2.0 km/h (1 Bft) O-SO 4.6 C 5.4 C
12.11.2002 14:00 7.2 C 85 % 1012.8 hPa 0.0 l/m 4.9 km/h (1 Bft) O-SO 4.9 C 6.4 C
12.11.2002 15:00 7.5 C 85 % 1011.9 hPa 0.0 l/m 3.0 km/h (1 Bft) SO 5.1 C 7.2 C
12.11.2002 16:00 6.4 C 86 % 1011.8 hPa 0.0 l/m 4.3 km/h (1 Bft) O-SO 4.3 C 5.7 C
12.11.2002 17:00 4.8 C 92 % 1011.8 hPa 0.0 l/m 0.8 km/h (0 Bft) O-SO 3.6 C 4.6 C
12.11.2002 18:00 3.7 C 95 % 1011.8 hPa 0.0 l/m 0.0 km/h (0 Bft) N 3.0 C 3.7 C
12.11.2002 19:00 3.2 C 99 % 1011.8 hPa 0.0 l/m 0.5 km/h (0 Bft) O 3.1 C 3.1 C
12.11.2002 20:00 3.2 C 100 % 1011.4 hPa 0.0 l/m 0.0 km/h (0 Bft) N 3.1 C 3.2 C
12.11.2002 21:00 3.4 C 100 % 1010.8 hPa 0.0 l/m 0.0 km/h (0 Bft) N 3.4 C 3.4 C
12.11.2002 22:00 3.5 C 100 % 1010.8 hPa 0.0 l/m 0.0 km/h (0 Bft) N 3.5 C 3.5 C
12.11.2002 23:00 3.3 C 100 % 1010.2 hPa 0.0 l/m 0.4 km/h (0 Bft) O-SO 3.3 C 3.2 C
13.11.2002 00:00 3.5 C 100 % 1009.5 hPa 0.0 l/m 0.1 km/h (0 Bft) N 3.5 C 3.5 C
13.11.2002 01:00 3.3 C 100 % 1008.7 hPa 0.0 l/m 2.0 km/h (1 Bft) O-SO 3.3 C 2.9 C
13.11.2002 02:00 3.0 C 100 % 1008.7 hPa 0.0 l/m 3.0 km/h (1 Bft) O-SO 3.0 C 2.4 C
13.11.2002 03:00 3.0 C 100 % 1007.8 hPa 0.0 l/m 4.0 km/h (1 Bft) O-SO 3.0 C 2.1 C
13.11.2002 04:00 2.8 C 100 % 1006.8 hPa 0.0 l/m 0.7 km/h (0 Bft) O-SO 2.8 C 2.7 C
13.11.2002 05:00 2.8 C 100 % 1006.8 hPa 0.0 l/m 1.5 km/h (1 Bft) NW 2.8 C 2.4 C
13.11.2002 06:00 3.0 C 100 % 1005.7 hPa 0.0 l/m 2.7 km/h (1 Bft) O-SO 3.0 C 2.4 C
13.11.2002 07:00 3.2 C 100 % 1005.7 hPa 0.0 l/m 0.6 km/h (0 Bft) O-SO 3.2 C 3.2 C
13.11.2002 08:00 3.7 C 100 % 1005.9 hPa 0.0 l/m 4.4 km/h (1 Bft) O-SO 3.7 C 2.7 C
13.11.2002 09:00 4.4 C 100 % 1005.6 hPa 0.0 l/m 0.9 km/h (0 Bft) O-SO 4.4 C 4.4 C
13.11.2002 10:00 5.2 C 100 % 1005.6 hPa 0.0 l/m 0.1 km/h (0 Bft) N 5.2 C 5.2 C
13.11.2002 11:00 5.8 C 92 % 1005.6 hPa 0.3 l/m 2.3 km/h (1 Bft) NW 4.5 C 5.4 C
13.11.2002 12:00 6.0 C 93 % 1005.2 hPa 0.3 l/m 2.9 km/h (1 Bft) O-SO 5.0 C 5.4 C
13.11.2002 13:00 6.6 C 96 % 1004.2 hPa 0.6 l/m 1.2 km/h (1 Bft) SO 6.1 C 6.5 C
13.11.2002 14:00 8.5 C 91 % 1003.2 hPa 0.0 l/m 2.5 km/h (1 Bft) O-SO 7.1 C 8.2 C
13.11.2002 15:00 8.8 C 86 % 1002.5 hPa 0.0 l/m 3.6 km/h (1 Bft) SO 6.6 C 8.3 C
13.11.2002 16:00 7.2 C 91 % 1001.7 hPa 0.0 l/m 0.0 km/h (0 Bft) N 5.8 C 7.2 C
13.11.2002 17:00 5.6 C 95 % 1001.3 hPa 0.0 l/m 0.0 km/h (0 Bft) N 4.9 C 5.6 C
13.11.2002 18:00 4.6 C 97 % 1000.4 hPa 0.0 l/m 0.7 km/h (0 Bft) O-SO 4.1 C 4.4 C
13.11.2002 19:00 4.3 C 100 % 999.9 hPa 0.0 l/m 0.0 km/h (0 Bft) N 4.3 C 4.3 C
13.11.2002 20:00 4.4 C 100 % 998.7 hPa 0.0 l/m 0.1 km/h (0 Bft) W-NW 4.4 C 4.4 C
13.11.2002 21:00 4.1 C 100 % 997.7 hPa 0.0 l/m 0.0 km/h (0 Bft) N 4.1 C 4.1 C
13.11.2002 22:00 3.9 C 100 % 996.5 hPa 0.0 l/m 0.0 km/h (0 Bft) N 3.9 C 3.9 C
13.11.2002 23:00 3.5 C 100 % 995.2 hPa 0.0 l/m 0.0 km/h (0 Bft) N 3.5 C 3.5 C
14.11.2002 00:00 2.9 C 100 % 994.2 hPa 0.0 l/m 0.0 km/h (0 Bft) N 2.9 C 2.9 C
14.11.2002 01:00 2.4 C 100 % 994.2 hPa 0.0 l/m 0.0 km/h (0 Bft) N 2.4 C 2.4 C
14.11.2002 02:00 2.2 C 100 % 994.6 hPa 0.0 l/m 0.2 km/h (0 Bft) O-SO 2.2 C 2.2 C
14.11.2002 03:00 1.4 C 100 % 995.2 hPa 0.0 l/m 1.7 km/h (1 Bft) O-SO 1.4 C 0.9 C
14.11.2002 04:00 2.0 C 100 % 994.2 hPa 0.0 l/m 3.1 km/h (1 Bft) O-SO 2.0 C 1.4 C
14.11.2002 05:00 2.6 C 100 % 994.2 hPa 0.0 l/m 0.2 km/h (0 Bft) S-SW 2.6 C 2.6 C
14.11.2002 06:00 2.7 C 100 % 993.6 hPa 0.0 l/m 0.0 km/h (0 Bft) N 2.7 C 2.7 C
14.11.2002 07:00 2.8 C 100 % 992.2 hPa 0.0 l/m 0.0 km/h (0 Bft) N 2.8 C 2.8 C
14.11.2002 08:00 3.2 C 100 % 991.1 hPa 0.0 l/m 0.0 km/h (0 Bft) N 3.2 C 3.2 C
14.11.2002 09:00 3.9 C 100 % 991.3 hPa 0.0 l/m 1.2 km/h (1 Bft) NW 3.9 C 3.6 C
14.11.2002 10:00 6.1 C 99 % 992.2 hPa 0.0 l/m 12.4 km/h (3 Bft) NW 6.0 C 4.3 C
14.11.2002 11:00 8.2 C 77 % 993.0 hPa 0.0 l/m 46.7 km/h (6 Bft) NW 4.4 C 3.2 C
14.11.2002 12:00 7.4 C 84 % 994.2 hPa 0.3 l/m 21.3 km/h (4 Bft) W-NW 4.9 C 4.4 C
14.11.2002 13:00 6.8 C 92 % 995.7 hPa 1.5 l/m 6.2 km/h (2 Bft) W 5.5 C 5.8 C
14.11.2002 14:00 6.2 C 96 % 996.6 hPa 2.4 l/m 9.4 km/h (2 Bft) SO 5.6 C 4.4 C
14.11.2002 15:00 5.4 C 92 % 997.3 hPa 0.3 l/m 10.6 km/h (2 Bft) SO 4.2 C 3.3 C
14.11.2002 16:00 5.2 C 92 % 996.1 hPa 0.0 l/m 11.0 km/h (2 Bft) O-SO 4.0 C 2.9 C
14.11.2002 17:00 5.0 C 93 % 995.5 hPa 0.0 l/m 0.4 km/h (0 Bft) O 4.0 C 4.9 C
14.11.2002 18:00 4.4 C 98 % 995.8 hPa 0.0 l/m 0.5 km/h (0 Bft) O-SO 4.1 C 4.3 C
14.11.2002 19:00 4.3 C 100 % 995.6 hPa 0.0 l/m 0.0 km/h (0 Bft) N 4.3 C 4.3 C
14.11.2002 20:00 4.4 C 100 % 994.9 hPa 0.0 l/m 0.0 km/h (0 Bft) N 4.4 C 4.4 C
14.11.2002 21:00 4.4 C 100 % 993.4 hPa 0.3 l/m 0.0 km/h (0 Bft) N 4.4 C 4.4 C
14.11.2002 22:00 4.6 C 100 % 994.0 hPa 1.2 l/m 0.0 km/h (0 Bft) N 4.6 C 4.6 C
14.11.2002 23:00 4.6 C 100 % 993.2 hPa 2.1 l/m 0.7 km/h (0 Bft) W-NW 4.6 C 4.6 C
15.11.2002 00:00 4.8 C 100 % 993.1 hPa 0.9 l/m 3.0 km/h (1 Bft) O-SO 4.8 C 4.3 C
15.11.2002 01:00 4.8 C 100 % 992.1 hPa 0.0 l/m 0.3 km/h (0 Bft) W-NW 4.8 C 4.8 C
15.11.2002 02:00 4.9 C 100 % 991.1 hPa 0.3 l/m 0.6 km/h (0 Bft) O-SO 4.9 C 4.9 C
15.11.2002 03:00 4.9 C 100 % 990.0 hPa 0.0 l/m 1.5 km/h (1 Bft) O-SO 4.9 C 4.6 C
15.11.2002 04:00 4.7 C 100 % 989.5 hPa 0.0 l/m 1.4 km/h (1 Bft) O-SO 4.7 C 4.5 C
15.11.2002 05:00 5.8 C 100 % 992.6 hPa 0.9 l/m 2.5 km/h (1 Bft) N-NW 5.8 C 5.4 C
15.11.2002 06:00 5.8 C 100 % 992.1 hPa 0.3 l/m 4.1 km/h (1 Bft) O-SO 5.8 C 4.9 C
15.11.2002 07:00 5.6 C 100 % 992.1 hPa 0.0 l/m 7.9 km/h (2 Bft) O-SO 5.6 C 3.9 C
15.11.2002 08:00 5.9 C 100 % 993.0 hPa 0.0 l/m 0.3 km/h (0 Bft) O-SO 5.9 C 5.9 C
15.11.2002 09:00 6.5 C 100 % 993.2 hPa 0.0 l/m 0.0 km/h (0 Bft) N 6.5 C 6.5 C
15.11.2002 10:00 6.9 C 100 % 994.0 hPa 0.0 l/m 0.0 km/h (0 Bft) N 6.9 C 6.9 C
15.11.2002 11:00 8.0 C 97 % 994.2 hPa 0.0 l/m 0.4 km/h (0 Bft) O-SO 7.6 C 8.0 C
15.11.2002 12:00 8.2 C 93 % 995.2 hPa 0.0 l/m 0.0 km/h (0 Bft) N 7.1 C 8.2 C
15.11.2002 13:00 8.3 C 93 % 995.5 hPa 0.0 l/m 0.0 km/h (0 Bft) N 7.2 C 8.3 C
15.11.2002 14:00 8.3 C 93 % 996.2 hPa 0.0 l/m 0.0 km/h (0 Bft) N 7.3 C 8.3 C
15.11.2002 15:00 8.0 C 94 % 996.3 hPa 0.3 l/m 0.9 km/h (0 Bft) O-SO 7.0 C 7.9 C
15.11.2002 16:00 7.5 C 96 % 997.3 hPa 0.6 l/m 0.0 km/h (0 Bft) N 6.9 C 7.5 C
15.11.2002 17:00 7.2 C 98 % 997.3 hPa 0.6 l/m 0.1 km/h (0 Bft) O-SO 7.0 C 7.2 C
15.11.2002 18:00 7.1 C 100 % 997.3 hPa 0.0 l/m 0.0 km/h (0 Bft) N 7.1 C 7.1 C
15.11.2002 19:00 6.7 C 100 % 997.3 hPa 0.0 l/m 0.0 km/h (0 Bft) N 6.7 C 6.7 C
15.11.2002 20:00 6.6 C 100 % 996.5 hPa 0.0 l/m 0.0 km/h (0 Bft) N 6.6 C 6.6 C
15.11.2002 21:00 6.4 C 100 % 996.3 hPa 0.0 l/m 0.0 km/h (0 Bft) N 6.4 C 6.4 C
15.11.2002 22:00 6.3 C 100 % 996.3 hPa 0.0 l/m 0.3 km/h (0 Bft) O-SO 6.3 C 6.3 C
15.11.2002 23:00 6.2 C 100 % 995.9 hPa 0.0 l/m 0.0 km/h (0 Bft) N 6.2 C 6.2 C
16.11.2002 00:00 6.3 C 100 % 995.2 hPa 0.0 l/m 0.0 km/h (0 Bft) N 6.3 C 6.3 C
16.11.2002 01:00 6.2 C 100 % 995.1 hPa 0.0 l/m 0.1 km/h (0 Bft) O 6.2 C 6.2 C
16.11.2002 02:00 6.2 C 100 % 994.2 hPa 0.0 l/m 0.0 km/h (0 Bft) N 6.2 C 6.2 C
16.11.2002 03:00 6.3 C 100 % 994.2 hPa 0.0 l/m 0.0 km/h (0 Bft) N 6.3 C 6.3 C
16.11.2002 04:00 6.0 C 100 % 994.2 hPa 0.0 l/m 0.4 km/h (0 Bft) O 6.0 C 6.0 C
16.11.2002 05:00 5.8 C 100 % 994.2 hPa 0.0 l/m 0.4 km/h (0 Bft) O-SO 5.8 C 5.8 C
16.11.2002 06:00 5.7 C 100 % 994.2 hPa 0.0 l/m 0.5 km/h (0 Bft) O-SO 5.7 C 5.6 C
16.11.2002 07:00 6.0 C 100 % 994.3 hPa 0.0 l/m 3.0 km/h (1 Bft) O-SO 6.0 C 5.5 C
16.11.2002 08:00 6.5 C 100 % 995.2 hPa 0.0 l/m 0.4 km/h (0 Bft) O-SO 6.5 C 6.5 C
16.11.2002 09:00 6.9 C 100 % 995.2 hPa 0.0 l/m 0.3 km/h (0 Bft) O-SO 6.9 C 6.8 C
16.11.2002 10:00 7.2 C 100 % 995.2 hPa 0.0 l/m 1.3 km/h (1 Bft) SO 7.2 C 6.9 C
16.11.2002 11:00 7.5 C 100 % 995.2 hPa 0.0 l/m 0.9 km/h (0 Bft) O-SO 7.5 C 7.4 C
16.11.2002 12:00 7.9 C 100 % 994.2 hPa 0.0 l/m 0.0 km/h (0 Bft) N 7.9 C 7.9 C
16.11.2002 13:00 8.2 C 97 % 994.2 hPa 0.0 l/m 1.1 km/h (0 Bft) O-SO 7.8 C 8.1 C
16.11.2002 14:00 8.2 C 98 % 993.7 hPa 1.5 l/m 0.5 km/h (0 Bft) W 7.8 C 8.1 C
16.11.2002 15:00 8.4 C 99 % 994.6 hPa 3.3 l/m 6.6 km/h (2 Bft) W-NW 8.2 C 7.5 C
16.11.2002 16:00 8.1 C 95 % 996.2 hPa 2.1 l/m 29.0 km/h (5 Bft) NW 7.4 C 4.5 C
16.11.2002 17:00 6.7 C 93 % 998.3 hPa 0.6 l/m 8.6 km/h (2 Bft) W-NW 5.7 C 5.4 C
16.11.2002 18:00 6.5 C 94 % 999.5 hPa 0.6 l/m 2.1 km/h (1 Bft) SO 5.7 C 6.3 C
16.11.2002 19:00 6.6 C 96 % 1001.0 hPa 0.9 l/m 2.3 km/h (1 Bft) S-SW 5.9 C 6.3 C
16.11.2002 20:00 6.5 C 97 % 1002.0 hPa 0.3 l/m 0.8 km/h (0 Bft) O-SO 6.1 C 6.5 C
16.11.2002 21:00 6.6 C 96 % 1003.1 hPa 0.0 l/m 3.0 km/h (1 Bft) SO 6.0 C 6.1 C
16.11.2002 22:00 6.7 C 97 % 1004.3 hPa 0.0 l/m 3.6 km/h (1 Bft) SO 6.3 C 6.2 C
16.11.2002 23:00 5.9 C 99 % 1004.9 hPa 0.0 l/m 2.1 km/h (1 Bft) SO 5.8 C 5.7 C
17.11.2002 00:00 5.3 C 98 % 1005.6 hPa 0.0 l/m 2.6 km/h (1 Bft) O-SO 5.0 C 4.8 C
17.11.2002 01:00 5.0 C 99 % 1006.6 hPa 0.0 l/m 4.8 km/h (1 Bft) O-SO 4.9 C 4.1 C
17.11.2002 02:00 5.4 C 100 % 1006.9 hPa 0.0 l/m 7.6 km/h (2 Bft) SO 5.3 C 3.8 C
17.11.2002 03:00 4.3 C 100 % 1007.7 hPa 0.0 l/m 0.3 km/h (0 Bft) N 4.3 C 4.3 C
17.11.2002 04:00 3.9 C 100 % 1007.7 hPa 0.0 l/m 0.5 km/h (0 Bft) O-SO 3.9 C 3.8 C
17.11.2002 05:00 3.8 C 100 % 1008.6 hPa 0.0 l/m 0.9 km/h (0 Bft) O-SO 3.8 C 3.6 C
17.11.2002 06:00 4.3 C 100 % 1009.1 hPa 0.0 l/m 2.0 km/h (1 Bft) O-SO 4.3 C 4.0 C
17.11.2002 07:00 3.9 C 100 % 1009.9 hPa 0.0 l/m 0.3 km/h (0 Bft) O 3.9 C 3.8 C
17.11.2002 08:00 4.5 C 100 % 1010.8 hPa 0.0 l/m 0.0 km/h (0 Bft) N 4.5 C 4.5 C
17.11.2002 09:00 4.7 C 100 % 1011.7 hPa 0.0 l/m 0.4 km/h (0 Bft) O-SO 4.7 C 4.7 C
17.11.2002 10:00 6.1 C 100 % 1011.8 hPa 0.0 l/m 0.2 km/h (0 Bft) O-SO 6.1 C 6.1 C
17.11.2002 11:00 7.6 C 100 % 1011.8 hPa 0.0 l/m 1.1 km/h (1 Bft) O-SO 7.6 C 7.5 C
17.11.2002 12:00 9.5 C 94 % 1011.8 hPa 0.0 l/m 0.1 km/h (0 Bft) N 8.6 C 9.5 C
17.11.2002 13:00 11.1 C 86 % 1011.8 hPa 0.0 l/m 0.2 km/h (0 Bft) O-SO 8.8 C 11.1 C
17.11.2002 14:00 11.9 C 78 % 1011.8 hPa 0.0 l/m 0.4 km/h (0 Bft) O-SO 8.2 C 11.9 C
17.11.2002 15:00 11.7 C 74 % 1012.5 hPa 0.0 l/m 0.3 km/h (0 Bft) W-NW 7.2 C 11.7 C
17.11.2002 16:00 9.9 C 80 % 1012.8 hPa 0.0 l/m 0.0 km/h (0 Bft) O-SO 6.6 C 9.9 C
17.11.2002 17:00 7.3 C 88 % 1012.8 hPa 0.0 l/m 0.8 km/h (0 Bft) O-SO 5.5 C 7.2 C
17.11.2002 18:00 5.7 C 95 % 1013.7 hPa 0.0 l/m 1.0 km/h (0 Bft) O-SO 4.9 C 5.5 C
17.11.2002 19:00 4.6 C 96 % 1013.9 hPa 0.0 l/m 0.5 km/h (0 Bft) O-SO 4.1 C 4.6 C
17.11.2002 20:00 4.2 C 98 % 1014.2 hPa 0.0 l/m 0.5 km/h (0 Bft) O 3.9 C 4.1 C
17.11.2002 21:00 3.6 C 100 % 1014.9 hPa 0.0 l/m 2.3 km/h (1 Bft) O-SO 3.5 C 3.0 C
17.11.2002 22:00 3.6 C 99 % 1014.9 hPa 0.0 l/m 0.0 km/h (0 Bft) N 3.4 C 3.6 C
17.11.2002 23:00 2.8 C 100 % 1015.0 hPa 0.0 l/m 1.1 km/h (0 Bft) O-SO 2.8 C 2.7 C
Min-Datum _ 14.11.02 14.11.02 15.11.02 - 11.11.02 - 14.11.02 13.11.02
_ Min-Zeit 03:15 11:42 03:55 - 00:00 - 03:15 08:17
Minimum _ 1.2 C 71 % 989.0 hPa - 0.0 km/h (0 Bft) - 1.2 C -1.0 C
Max-Datum _ 11.11.02 11.11.02 12.11.02 16.11.02 16.11.02 - 11.11.02 11.11.02
_ Max-Zeit 11:51 00:00 01:16 14:00 16:50 - 11:03 11:51
Maximum _ 12.5 C 100 % 1017.0 hPa 3.3 l/m 55.5 km/h
NW (7 Bft)
- 11.2 C 12.5 C
Durchschnitt _ 5.8 C 97 % 1003.2 hPa #34.5 l/m 2.4 km/h (1 Bft) O-SO 5.3 C 5.5 C

Durchschnitt Minimum Temp.5.4 C
Durchschnitt Maximum Temp.6.3 C
© Kaiko 2002